Morse Mill, Missouri
Current Conditions -  °F | °C
As of 9:54 AM on Wednesday 22 Oct 2014 (Local Time) from KSUS Reporting Station
Clear Clear  
Wind Chill: 50°   Ceiling: Unl
Heat Index: 50°   Visibility: 10mi
Dew Point: 43°   Wind: 5mph
Humidity: 77%   Direction: 120°ESE
Pressure: 30.32"   Gusts: NA
Location:  38.28°N, 90.65°W
Report Text: KSUS 221454Z 12004KT 10SM CLR 10/06 A3032 RMK AO2 SLP270 6//// T01000061 53011 $
Loading
Personal Weather Stations






























Interactive Weather Map
Tropical Storm Tracking
New forecast layout! Learn more

10-Day Weather Forecast

Advertisements
Track Severe Weather on mobile